Time;durP1;ratioP1;P1;durP2;ratioP2;P2;SDS_P1;SDS_P2;PMS_P1;PMS_P2;Temp;Humidity;BMP_temperature;BMP_pressure;BME280_temperature;BME280_humidity;BME280_pressure;Samples;Min_cycle;Max_cycle;Signal;HPM_P1;HPM_P2
2023/03/29 00:01:11;;;;;;;;;;;;;;;;;;4966934;28;19989;-85
2023/03/29 00:03:44;;;;;;;;;;;;;;;;;;4984475;28;19902;-85
2023/03/29 00:06:20;;;;;;;;;;;;;;;;;;4985157;28;19933;-84
2023/03/29 00:09:03;;;;;;;;;;;;;;;;;;4970078;28;19901;-84
2023/03/29 00:11:30;;;;;;;;;;;;;;;;;;4984886;28;19932;-84
2023/03/29 00:14:05;;;;;;;;;;;;;;;;;;4985465;28;19902;-84
2023/03/29 00:16:39;;;;;;;;;;;;;;;;;;5365778;23;19948;-84
2023/03/29 00:19:12;;;;;;;;;;;;;;;;;;4969151;28;19949;-86
2023/03/29 00:21:41;;;;;;;;;;;;;;;;;;4969493;28;19912;-83
2023/03/29 00:26:44;;;;;;;;;;;;;;;;;;5016256;28;19973;-83
2023/03/29 00:29:12;;;;;;;;;;;;;;;;;;4967750;28;19898;-85
2023/03/29 00:31:52;;;;;;;;;;;;;;;;;;4974117;28;19980;-85
2023/03/29 00:53:24;;;;;;;;;;;;;;;;;;5117497;23;19930;-83
2023/03/29 01:07:05;;;;;;;;;;;;;;;;;;4999702;28;19914;-85
2023/03/29 01:09:36;;;;;;;;;;;;;;;;;;4969353;28;19903;-85
2023/03/29 01:12:12;;;;;;;;;;;;;;;;;;4969289;28;19902;-85
2023/03/29 01:14:56;;;;;;;;;;;;;;;;;;4950583;29;19903;-85
2023/03/29 01:17:26;;;;;;;;;;;;;;;;;;4981364;28;19909;-85
2023/03/29 01:22:38;;;;;;;;;;;;;;;;;;5144709;23;19910;-86
2023/03/29 01:25:10;;;;;;;;;;;;;;;;;;4968765;28;19902;-85
2023/03/29 01:27:43;;;;;;;;;;;;;;;;;;4953490;28;19921;-85
2023/03/29 01:30:12;;;;;;;;;;;;;;;;;;4984398;28;19909;-85
2023/03/29 01:32:49;;;;;;;;;;;;;;;;;;4968763;28;19930;-85
2023/03/29 01:35:28;;;;;;;;;;;;;;;;;;4984349;28;19941;-84
2023/03/29 01:37:57;;;;;;;;;;;;;;;;;;5000409;28;19953;-85
2023/03/29 01:43:00;;;;;;;;;;;;;;;;;;4986060;28;19926;-84
2023/03/29 01:45:36;;;;;;;;;;;;;;;;;;4968441;28;19906;-84
2023/03/29 01:48:11;;;;;;;;;;;;;;;;;;5153111;23;19964;-84
2023/03/29 01:50:41;;;;;;;;;;;;;;;;;;4971289;28;19909;-85
2023/03/29 01:53:12;;;;;;;;;;;;;;;;;;5003417;28;19902;-84
2023/03/29 01:55:44;;;;;;;;;;;;;;;;;;5412552;23;19931;-85
2023/03/29 01:58:15;;;;;;;;;;;;;;;;;;4986926;28;19922;-84
2023/03/29 02:16:48;;;;;;;;;;;;;;;;;;5819782;23;19925;-85
2023/03/29 02:19:28;;;;;;;;;;;;;;;;;;5026461;28;19909;-82
2023/03/29 02:21:56;;;;;;;;;;;;;;;;;;5026080;28;19901;-84
2023/03/29 02:24:37;;;;;;;;;;;;;;;;;;5038878;28;20337;-85
2023/03/29 02:27:26;;;;;;;;;;;;;;;;;;5009175;28;19940;-85
2023/03/29 02:30:30;;;;;;;;;;;;;;;;;;5027328;28;19909;-84
2023/03/29 02:32:59;;;;;;;;;;;;;;;;;;5022088;28;19984;-85
2023/03/29 02:35:25;;;;;;;;;;;;;;;;;;5022312;28;19912;-85
2023/03/29 02:38:00;;;;;;;;;;;;;;;;;;5038065;28;19925;-85
2023/03/29 02:40:26;;;;;;;;;;;;;;;;;;5021767;28;19902;-83
2023/03/29 02:43:01;;;;;;;;;;;;;;;;;;5006912;28;19917;-85
2023/03/29 02:45:40;;;;;;;;;;;;;;;;;;5038506;28;19940;-84
2023/03/29 02:48:14;;;;;;;;;;;;;;;;;;5006520;28;19941;-86
2023/03/29 02:50:49;;;;;;;;;;;;;;;;;;5022056;28;19901;-85
2023/03/29 02:53:23;;;;;;;;;;;;;;;;;;5021012;28;19902;-83
2023/03/29 02:55:56;;;;;;;;;;;;;;;;;;5037237;28;19920;-81
2023/03/29 02:58:35;;;;;;;;;;;;;;;;;;5037559;28;19909;-83
2023/03/29 03:01:10;;;;;;;;;;;;;;;;;;5037929;28;19917;-84
2023/03/29 03:03:53;;;;;;;;;;;;;;;;;;5023726;28;19917;-84
2023/03/29 03:06:21;;;;;;;;;;;;;;;;;;5037962;28;19965;-84
2023/03/29 03:08:49;;;;;;;;;;;;;;;;;;5021226;28;19928;-83
2023/03/29 03:11:18;;;;;;;;;;;;;;;;;;5037855;28;19902;-83
2023/03/29 03:19:10;;;;;;;;;;;;;;;;;;5359344;23;19945;-84
2023/03/29 03:21:39;;;;;;;;;;;;;;;;;;5001498;28;19902;-82
2023/03/29 03:24:10;;;;;;;;;;;;;;;;;;4986324;28;19921;-82
2023/03/29 03:26:37;;;;;;;;;;;;;;;;;;4969677;28;19925;-85
2023/03/29 03:29:10;;;;;;;;;;;;;;;;;;4985004;28;19904;-83
2023/03/29 03:32:11;;;;;;;;;;;;;;;;;;4988743;28;19918;-83
2023/03/29 03:34:59;;;;;;;;;;;;;;;;;;4985945;28;19909;-83
2023/03/29 03:37:34;;;;;;;;;;;;;;;;;;4986362;28;19929;-85
2023/03/29 03:40:10;;;;;;;;;;;;;;;;;;4969553;28;19914;-83
2023/03/29 03:42:40;;;;;;;;;;;;;;;;;;5001024;28;19898;-84
2023/03/29 03:45:07;;;;;;;;;;;;;;;;;;4983466;28;19921;-84
2023/03/29 03:48:11;;;;;;;;;;;;;;;;;;4983169;28;19910;-81
2023/03/29 03:50:47;;;;;;;;;;;;;;;;;;4984920;28;19914;-83
2023/03/29 03:53:20;;;;;;;;;;;;;;;;;;4983842;28;19914;-83
2023/03/29 03:56:19;;;;;;;;;;;;;;;;;;4987757;28;19914;-82
2023/03/29 03:59:25;;;;;;;;;;;;;;;;;;5000084;28;19918;-83
2023/03/29 04:02:19;;;;;;;;;;;;;;;;;;5005587;28;19993;-83
2023/03/29 04:04:53;;;;;;;;;;;;;;;;;;4972334;28;19905;-85
2023/03/29 04:07:26;;;;;;;;;;;;;;;;;;4974454;28;19925;-85
2023/03/29 04:21:13;;;;;;;;;;;;;;;;;;5520609;23;19922;-84
2023/03/29 04:23:47;;;;;;;;;;;;;;;;;;5005450;28;19949;-85
2023/03/29 04:26:17;;;;;;;;;;;;;;;;;;5005138;28;19902;-81
2023/03/29 04:45:02;;;;;;;;;;;;;;;;;;5365723;23;19909;-84
2023/03/29 04:50:30;;;;;;;;;;;;;;;;;;6108415;23;20934;-80
2023/03/29 04:58:19;;;;;;;;;;;;;;;;;;5105497;23;19941;-86
2023/03/29 05:00:45;;;;;;;;;;;;;;;;;;4988085;28;19909;-83
2023/03/29 05:03:51;;;;;;;;;;;;;;;;;;5008667;28;19906;-85
2023/03/29 05:06:31;;;;;;;;;;;;;;;;;;4987641;28;19913;-85
2023/03/29 05:09:05;;;;;;;;;;;;;;;;;;4968459;28;19902;-85
2023/03/29 05:11:45;;;;;;;;;;;;;;;;;;4973372;28;19909;-84
2023/03/29 05:14:20;;;;;;;;;;;;;;;;;;4988363;28;19902;-86
2023/03/29 05:16:58;;;;;;;;;;;;;;;;;;5005316;28;19921;-85
2023/03/29 05:28:28;;;;;;;;;;;;;;;;;;5141309;23;19950;-82
2023/03/29 05:31:01;;;;;;;;;;;;;;;;;;5019393;28;19929;-86
2023/03/29 05:33:37;;;;;;;;;;;;;;;;;;4988642;28;19902;-84
2023/03/29 05:36:07;;;;;;;;;;;;;;;;;;4987286;28;19913;-82
2023/03/29 05:41:25;;;;;;;;;;;;;;;;;;5601639;23;19910;-83
2023/03/29 05:46:56;;;;;;;;;;;;;;;;;;5399770;23;19930;-84
2023/03/29 06:24:28;;;;;;;;;;;;;;;;;;5283534;23;20346;-80
2023/03/29 06:27:02;;;;;;;;;;;;;;;;;;4964627;28;20396;-79
2023/03/29 06:29:29;;;;;;;;;;;;;;;;;;4950083;28;19913;-79
2023/03/29 06:31:56;;;;;;;;;;;;;;;;;;4980641;28;19937;-80
2023/03/29 06:34:50;;;;;;;;;;;;;;;;;;4967598;28;19914;-80
2023/03/29 06:37:37;;;;;;;;;;;;;;;;;;4965021;28;19924;-80
2023/03/29 06:40:18;;;;;;;;;;;;;;;;;;4966090;28;19914;-80
2023/03/29 06:42:44;;;;;;;;;;;;;;;;;;4948448;28;19914;-80
2023/03/29 06:45:28;;;;;;;;;;;;;;;;;;4982459;28;19914;-79
2023/03/29 06:47:53;;;;;;;;;;;;;;;;;;5005206;28;19914;-79
2023/03/29 06:50:19;;;;;;;;;;;;;;;;;;4970866;28;20277;-80
2023/03/29 06:52:52;;;;;;;;;;;;;;;;;;4985764;28;19914;-79
2023/03/29 06:55:17;;;;;;;;;;;;;;;;;;5001709;28;19914;-79
2023/03/29 06:57:43;;;;;;;;;;;;;;;;;;4951833;28;19963;-80
2023/03/29 07:00:18;;;;;;;;;;;;;;;;;;4979818;28;20000;-80
2023/03/29 07:03:02;;;;;;;;;;;;;;;;;;4962637;28;20413;-80
2023/03/29 07:05:28;;;;;;;;;;;;;;;;;;4963508;28;20020;-80
2023/03/29 07:10:32;;;;;;;;;;;;;;;;;;4979327;28;19914;-80
2023/03/29 07:13:18;;;;;;;;;;;;;;;;;;4996705;28;19953;-80
2023/03/29 07:15:43;;;;;;;;;;;;;;;;;;4980020;28;19968;-79
2023/03/29 07:18:18;;;;;;;;;;;;;;;;;;4963951;28;19918;-80
2023/03/29 07:20:44;;;;;;;;;;;;;;;;;;4998296;28;19937;-80
2023/03/29 07:23:10;;;;;;;;;;;;;;;;;;4979624;28;20004;-80
2023/03/29 07:25:36;;;;;;;;;;;;;;;;;;4978670;28;19961;-79
2023/03/29 07:28:02;;;;;;;;;;;;;;;;;;4976844;28;19913;-80
2023/03/29 07:30:28;;;;;;;;;;;;;;;;;;4961599;28;19960;-79
2023/03/29 07:33:00;;;;;;;;;;;;;;;;;;4962955;28;20004;-80
2023/03/29 07:35:31;;;;;;;;;;;;;;;;;;4978577;28;19918;-80
2023/03/29 07:37:57;;;;;;;;;;;;;;;;;;4976789;28;20544;-80
2023/03/29 07:40:24;;;;;;;;;;;;;;;;;;4978574;28;20000;-79
2023/03/29 07:42:56;;;;;;;;;;;;;;;;;;4995688;28;20106;-80
2023/03/29 07:45:22;;;;;;;;;;;;;;;;;;4962360;28;19925;-79
2023/03/29 07:47:56;;;;;;;;;;;;;;;;;;4979699;28;20001;-79
2023/03/29 07:50:22;;;;;;;;;;;;;;;;;;4979547;28;20447;-80
2023/03/29 07:52:48;;;;;;;;;;;;;;;;;;4995725;28;20004;-80
2023/03/29 07:55:13;;;;;;;;;;;;;;;;;;4961003;28;20365;-79
2023/03/29 07:58:00;;;;;;;;;;;;;;;;;;4998153;28;19917;-79
2023/03/29 08:00:25;;;;;;;;;;;;;;;;;;4998139;28;20017;-79
2023/03/29 08:03:13;;;;;;;;;;;;;;;;;;4998514;28;19956;-79
2023/03/29 08:05:40;;;;;;;;;;;;;;;;;;4950739;28;19997;-79
2023/03/29 08:08:09;;;;;;;;;;;;;;;;;;5003826;28;19914;-80
2023/03/29 08:10:43;;;;;;;;;;;;;;;;;;4991573;28;19985;-79
2023/03/29 08:13:19;;;;;;;;;;;;;;;;;;5015127;28;19909;-79
2023/03/29 08:16:08;;;;;;;;;;;;;;;;;;4970931;28;19968;-79
2023/03/29 08:18:38;;;;;;;;;;;;;;;;;;4999273;28;19914;-78
2023/03/29 08:21:03;;;;;;;;;;;;;;;;;;4999935;28;19905;-79
2023/03/29 08:23:29;;;;;;;;;;;;;;;;;;5000189;28;19949;-80
2023/03/29 08:26:17;;;;;;;;;;;;;;;;;;4980041;28;19957;-79
2023/03/29 08:28:43;;;;;;;;;;;;;;;;;;4993448;28;19918;-79
2023/03/29 08:31:09;;;;;;;;;;;;;;;;;;4975419;28;19914;-79
2023/03/29 08:33:37;;;;;;;;;;;;;;;;;;4985255;28;19921;-79
2023/03/29 08:36:22;;;;;;;;;;;;;;;;;;4981616;28;19918;-79
2023/03/29 08:38:50;;;;;;;;;;;;;;;;;;4980728;28;19918;-78
2023/03/29 08:41:17;;;;;;;;;;;;;;;;;;5001104;28;19920;-79
2023/03/29 08:43:43;;;;;;;;;;;;;;;;;;4984144;28;19924;-78
2023/03/29 08:46:11;;;;;;;;;;;;;;;;;;5002224;28;19914;-78
2023/03/29 08:48:37;;;;;;;;;;;;;;;;;;4986172;28;19920;-79
2023/03/29 08:51:04;;;;;;;;;;;;;;;;;;4985817;28;20056;-79
2023/03/29 08:53:30;;;;;;;;;;;;;;;;;;4984774;28;20478;-79
2023/03/29 08:56:18;;;;;;;;;;;;;;;;;;5000235;28;19914;-79
2023/03/29 08:58:56;;;;;;;;;;;;;;;;;;4982646;28;20377;-79
2023/03/29 09:01:23;;;;;;;;;;;;;;;;;;4981804;28;19921;-80
2023/03/29 09:03:51;;;;;;;;;;;;;;;;;;4980583;28;19910;-79
2023/03/29 09:06:28;;;;;;;;;;;;;;;;;;4980377;28;20008;-79
2023/03/29 09:09:02;;;;;;;;;;;;;;;;;;4981630;28;20011;-79
2023/03/29 09:11:27;;;;;;;;;;;;;;;;;;4999677;28;19914;-80
2023/03/29 09:13:53;;;;;;;;;;;;;;;;;;4981148;28;19936;-79
2023/03/29 09:16:18;;;;;;;;;;;;;;;;;;4997095;28;20405;-79
2023/03/29 09:18:46;;;;;;;;;;;;;;;;;;4980906;28;19924;-79
2023/03/29 09:21:12;;;;;;;;;;;;;;;;;;4979974;28;19921;-79
2023/03/29 09:23:37;;;;;;;;;;;;;;;;;;4949117;28;20503;-79
2023/03/29 09:26:32;;;;;;;;;;;;;;;;;;4978679;28;19913;-78
2023/03/29 09:29:18;;;;;;;;;;;;;;;;;;4969976;28;19914;-79
2023/03/29 09:31:44;;;;;;;;;;;;;;;;;;4997505;28;20377;-79
2023/03/29 09:34:09;;;;;;;;;;;;;;;;;;4979934;28;19918;-79
2023/03/29 09:36:51;;;;;;;;;;;;;;;;;;4988760;28;19973;-79
2023/03/29 09:39:17;;;;;;;;;;;;;;;;;;4988531;28;19924;-79
2023/03/29 09:41:47;;;;;;;;;;;;;;;;;;4987539;28;19932;-78
2023/03/29 09:44:12;;;;;;;;;;;;;;;;;;4987371;28;19925;-79
2023/03/29 09:46:39;;;;;;;;;;;;;;;;;;4984399;28;20404;-79
2023/03/29 09:49:05;;;;;;;;;;;;;;;;;;4982194;28;19913;-79
2023/03/29 09:51:30;;;;;;;;;;;;;;;;;;4964893;28;20259;-79
2023/03/29 09:53:59;;;;;;;;;;;;;;;;;;4980541;28;20008;-79
2023/03/29 09:56:51;;;;;;;;;;;;;;;;;;4942912;28;19913;-79
2023/03/29 09:59:19;;;;;;;;;;;;;;;;;;4947435;28;19925;-79
2023/03/29 10:01:45;;;;;;;;;;;;;;;;;;4962918;28;19913;-78
2023/03/29 10:04:11;;;;;;;;;;;;;;;;;;4979361;28;20293;-79
2023/03/29 10:06:39;;;;;;;;;;;;;;;;;;4979345;28;19914;-78
2023/03/29 10:09:04;;;;;;;;;;;;;;;;;;4962934;28;19920;-79
2023/03/29 10:11:35;;;;;;;;;;;;;;;;;;4963176;28;20013;-79
2023/03/29 10:14:01;;;;;;;;;;;;;;;;;;4947270;28;19913;-79
2023/03/29 10:16:26;;;;;;;;;;;;;;;;;;4978616;28;19926;-79
2023/03/29 10:18:53;;;;;;;;;;;;;;;;;;4978763;28;19961;-79
2023/03/29 10:21:19;;;;;;;;;;;;;;;;;;4946714;28;20012;-79
2023/03/29 10:23:45;;;;;;;;;;;;;;;;;;4962288;28;19917;-79
2023/03/29 10:26:10;;;;;;;;;;;;;;;;;;4946164;28;20404;-79
2023/03/29 10:28:36;;;;;;;;;;;;;;;;;;4947296;28;19972;-78
2023/03/29 10:31:06;;;;;;;;;;;;;;;;;;4963754;28;19914;-79
2023/03/29 10:33:32;;;;;;;;;;;;;;;;;;4978814;28;19914;-79
2023/03/29 10:35:58;;;;;;;;;;;;;;;;;;4978978;28;20004;-78
2023/03/29 10:38:23;;;;;;;;;;;;;;;;;;4961917;28;20293;-78
2023/03/29 10:40:49;;;;;;;;;;;;;;;;;;4962021;28;19921;-79
2023/03/29 10:43:14;;;;;;;;;;;;;;;;;;4962081;28;19989;-79
2023/03/29 10:45:41;;;;;;;;;;;;;;;;;;4978523;28;19918;-79
2023/03/29 10:48:06;;;;;;;;;;;;;;;;;;4978398;28;19939;-79
2023/03/29 10:50:33;;;;;;;;;;;;;;;;;;4978452;28;19914;-79
2023/03/29 10:52:58;;;;;;;;;;;;;;;;;;4995161;28;19925;-79
2023/03/29 10:55:24;;;;;;;;;;;;;;;;;;4978208;28;20385;-78
2023/03/29 10:57:49;;;;;;;;;;;;;;;;;;4961629;28;19985;-79
2023/03/29 11:00:15;;;;;;;;;;;;;;;;;;4977401;28;20463;-79
2023/03/29 11:02:41;;;;;;;;;;;;;;;;;;4977558;28;19914;-78
2023/03/29 11:05:06;;;;;;;;;;;;;;;;;;4961149;28;19914;-79
2023/03/29 11:07:31;;;;;;;;;;;;;;;;;;4961393;28;19921;-79
2023/03/29 11:09:57;;;;;;;;;;;;;;;;;;4994897;28;19924;-79
2023/03/29 11:12:23;;;;;;;;;;;;;;;;;;4945362;28;19918;-79
2023/03/29 11:14:48;;;;;;;;;;;;;;;;;;4945588;28;19914;-79
2023/03/29 11:17:14;;;;;;;;;;;;;;;;;;4977374;28;19914;-79
2023/03/29 11:19:40;;;;;;;;;;;;;;;;;;4946171;28;19918;-79
2023/03/29 11:22:05;;;;;;;;;;;;;;;;;;4961015;28;19910;-79
2023/03/29 11:24:34;;;;;;;;;;;;;;;;;;4976731;28;20364;-78
2023/03/29 11:27:00;;;;;;;;;;;;;;;;;;4961228;28;19918;-79
2023/03/29 11:29:25;;;;;;;;;;;;;;;;;;4960319;28;19918;-79
2023/03/29 11:31:51;;;;;;;;;;;;;;;;;;4994316;28;19936;-79
2023/03/29 11:34:20;;;;;;;;;;;;;;;;;;4977535;28;19976;-79
2023/03/29 11:36:49;;;;;;;;;;;;;;;;;;4976905;28;19914;-79
2023/03/29 11:39:14;;;;;;;;;;;;;;;;;;4966378;28;19925;-78
2023/03/29 11:41:40;;;;;;;;;;;;;;;;;;5004027;28;19909;-78
2023/03/29 11:44:06;;;;;;;;;;;;;;;;;;4986222;28;19941;-79
2023/03/29 11:46:31;;;;;;;;;;;;;;;;;;5004229;28;19945;-79
2023/03/29 11:48:59;;;;;;;;;;;;;;;;;;4988021;28;19914;-80
2023/03/29 11:51:25;;;;;;;;;;;;;;;;;;4971160;28;19921;-79
2023/03/29 11:53:55;;;;;;;;;;;;;;;;;;4972734;28;20008;-79
2023/03/29 11:56:20;;;;;;;;;;;;;;;;;;4975741;28;19924;-79
2023/03/29 11:58:46;;;;;;;;;;;;;;;;;;4952786;28;19941;-78
2023/03/29 12:01:12;;;;;;;;;;;;;;;;;;4966701;28;19914;-79
2023/03/29 12:03:40;;;;;;;;;;;;;;;;;;4963722;28;19974;-78
2023/03/29 12:06:06;;;;;;;;;;;;;;;;;;4961836;28;20309;-79
2023/03/29 12:08:31;;;;;;;;;;;;;;;;;;4945776;28;19914;-78
2023/03/29 12:10:57;;;;;;;;;;;;;;;;;;4994903;28;20000;-78
2023/03/29 12:13:22;;;;;;;;;;;;;;;;;;4978180;28;20349;-78
2023/03/29 12:15:48;;;;;;;;;;;;;;;;;;4994739;28;20274;-78
2023/03/29 12:18:14;;;;;;;;;;;;;;;;;;4977763;28;19939;-79
2023/03/29 12:20:39;;;;;;;;;;;;;;;;;;4946385;28;19914;-79
2023/03/29 12:25:58;;;;;;;;;;;;;;;;;;4970451;28;19930;-86
2023/03/29 12:28:24;;;;;;;;;;;;;;;;;;4951471;29;20021;-87
2023/03/29 12:30:49;;;;;;;;;;;;;;;;;;4951915;29;19915;-89
2023/03/29 12:33:15;;;;;;;;;;;;;;;;;;4965602;28;19937;-83
2023/03/29 12:35:59;;;;;;;;;;;;;;;;;;4941096;29;19911;-84
2023/03/29 12:38:43;;;;;;;;;;;;;;;;;;4959081;29;19982;-84
2023/03/29 12:41:35;;;;;;;;;;;;;;;;;;4929013;29;19939;-83
2023/03/29 12:44:16;;;;;;;;;;;;;;;;;;4943805;29;19922;-82
2023/03/29 12:46:52;;;;;;;;;;;;;;;;;;4943346;29;19971;-86
2023/03/29 12:49:18;;;;;;;;;;;;;;;;;;4958394;29;19921;-82
2023/03/29 12:51:43;;;;;;;;;;;;;;;;;;4932425;29;20017;-87
2023/03/29 12:54:09;;;;;;;;;;;;;;;;;;4942103;29;19915;-87
2023/03/29 12:56:35;;;;;;;;;;;;;;;;;;4942274;29;20344;-88
2023/03/29 12:59:00;;;;;;;;;;;;;;;;;;4950144;29;19992;-85
2023/03/29 13:01:26;;;;;;;;;;;;;;;;;;4932837;29;19919;-86
2023/03/29 13:03:52;;;;;;;;;;;;;;;;;;4931321;29;20003;-82
2023/03/29 13:06:17;;;;;;;;;;;;;;;;;;4945553;29;19922;-87
2023/03/29 13:08:42;;;;;;;;;;;;;;;;;;4907877;29;19937;-88
2023/03/29 13:11:08;;;;;;;;;;;;;;;;;;4940495;29;20352;-87
2023/03/29 13:13:35;;;;;;;;;;;;;;;;;;4924109;29;20386;-90
2023/03/29 13:16:00;;;;;;;;;;;;;;;;;;4940875;29;19921;-87
2023/03/29 13:18:25;;;;;;;;;;;;;;;;;;4922608;29;20001;-89
2023/03/29 13:20:51;;;;;;;;;;;;;;;;;;4940713;29;19915;-88
2023/03/29 13:23:16;;;;;;;;;;;;;;;;;;4946078;29;19919;-84
2023/03/29 13:25:42;;;;;;;;;;;;;;;;;;4933277;29;20431;-85
2023/03/29 13:28:07;;;;;;;;;;;;;;;;;;4941537;29;20288;-87
2023/03/29 13:30:33;;;;;;;;;;;;;;;;;;4925418;29;19958;-87
2023/03/29 13:32:59;;;;;;;;;;;;;;;;;;4924242;29;20291;-87
2023/03/29 13:35:25;;;;;;;;;;;;;;;;;;4938822;29;19914;-88
2023/03/29 13:37:52;;;;;;;;;;;;;;;;;;4941021;29;20345;-88
2023/03/29 13:40:18;;;;;;;;;;;;;;;;;;4940161;29;19915;-89
2023/03/29 13:42:43;;;;;;;;;;;;;;;;;;4921826;29;19926;-86
2023/03/29 13:45:09;;;;;;;;;;;;;;;;;;4938513;29;19921;-89
2023/03/29 13:47:35;;;;;;;;;;;;;;;;;;4922290;29;20302;-88
2023/03/29 13:50:00;;;;;;;;;;;;;;;;;;4937320;29;19949;-88
2023/03/29 13:52:40;;;;;;;;;;;;;;;;;;5111437;27;19948;-89
2023/03/29 13:55:06;;;;;;;;;;;;;;;;;;5093305;28;19919;-91
2023/03/29 13:57:32;;;;;;;;;;;;;;;;;;5112464;28;19923;-87
2023/03/29 14:00:00;;;;;;;;;;;;;;;;;;5094627;28;19912;-87
2023/03/29 14:02:26;;;;;;;;;;;;;;;;;;5112769;28;19934;-90
2023/03/29 14:04:52;;;;;;;;;;;;;;;;;;5109073;28;20280;-89
2023/03/29 14:07:17;;;;;;;;;;;;;;;;;;5075879;28;20010;-88
2023/03/29 14:09:43;;;;;;;;;;;;;;;;;;5110417;28;20020;-89
2023/03/29 14:12:08;;;;;;;;;;;;;;;;;;5110761;28;19920;-88
2023/03/29 14:14:33;;;;;;;;;;;;;;;;;;5076894;28;20353;-90
2023/03/29 14:16:59;;;;;;;;;;;;;;;;;;5109885;28;20371;-89
2023/03/29 14:19:24;;;;;;;;;;;;;;;;;;5093170;28;20368;-88
2023/03/29 14:21:52;;;;;;;;;;;;;;;;;;5076948;28;19916;-88
2023/03/29 14:24:17;;;;;;;;;;;;;;;;;;5111315;28;19912;-90
2023/03/29 14:26:42;;;;;;;;;;;;;;;;;;5092818;28;19919;-88
2023/03/29 14:29:08;;;;;;;;;;;;;;;;;;5075830;28;19998;-88
2023/03/29 14:31:34;;;;;;;;;;;;;;;;;;5109627;28;20017;-89
2023/03/29 14:33:59;;;;;;;;;;;;;;;;;;5110567;28;19912;-89
2023/03/29 14:36:25;;;;;;;;;;;;;;;;;;5109641;28;20366;-87
2023/03/29 14:38:50;;;;;;;;;;;;;;;;;;5091994;28;19930;-89
2023/03/29 14:41:16;;;;;;;;;;;;;;;;;;5110563;28;19916;-85
2023/03/29 14:43:41;;;;;;;;;;;;;;;;;;5110569;28;19916;-87
2023/03/29 14:46:07;;;;;;;;;;;;;;;;;;5110700;28;20440;-87
2023/03/29 14:48:32;;;;;;;;;;;;;;;;;;5109210;28;19916;-88
2023/03/29 14:50:57;;;;;;;;;;;;;;;;;;5109121;28;19955;-88
2023/03/29 14:53:23;;;;;;;;;;;;;;;;;;5092801;28;19924;-89
2023/03/29 14:55:50;;;;;;;;;;;;;;;;;;5091113;28;19948;-86
2023/03/29 14:58:16;;;;;;;;;;;;;;;;;;5108225;28;19985;-88
2023/03/29 15:00:42;;;;;;;;;;;;;;;;;;5109024;28;20322;-88
2023/03/29 15:03:07;;;;;;;;;;;;;;;;;;5103177;28;19937;-90
2023/03/29 15:05:33;;;;;;;;;;;;;;;;;;5083335;28;20267;-91
2023/03/29 15:07:58;;;;;;;;;;;;;;;;;;5067725;28;19912;-89
2023/03/29 15:10:24;;;;;;;;;;;;;;;;;;5097980;28;19916;-89
2023/03/29 15:12:50;;;;;;;;;;;;;;;;;;5099278;28;19958;-89
2023/03/29 15:15:15;;;;;;;;;;;;;;;;;;5105398;28;19954;-90
2023/03/29 15:17:41;;;;;;;;;;;;;;;;;;5113469;28;19912;-89
2023/03/29 15:20:12;;;;;;;;;;;;;;;;;;5112531;28;19912;-85
2023/03/29 15:22:38;;;;;;;;;;;;;;;;;;5114890;28;19912;-87
2023/03/29 15:25:03;;;;;;;;;;;;;;;;;;5115266;28;19984;-86
2023/03/29 15:27:29;;;;;;;;;;;;;;;;;;5118744;28;19923;-89
2023/03/29 15:29:55;;;;;;;;;;;;;;;;;;5083940;28;19917;-88
2023/03/29 15:32:21;;;;;;;;;;;;;;;;;;5116055;28;19919;-89
2023/03/29 15:34:46;;;;;;;;;;;;;;;;;;5114240;28;19923;-86
2023/03/29 15:37:12;;;;;;;;;;;;;;;;;;5117269;28;19915;-87
2023/03/29 15:39:37;;;;;;;;;;;;;;;;;;5093271;28;19990;-87
2023/03/29 15:42:02;;;;;;;;;;;;;;;;;;5096900;28;20327;-87
2023/03/29 15:44:28;;;;;;;;;;;;;;;;;;5095291;28;19995;-87
2023/03/29 15:46:54;;;;;;;;;;;;;;;;;;5095014;28;20417;-87
2023/03/29 15:49:19;;;;;;;;;;;;;;;;;;5096027;28;19919;-89
2023/03/29 15:51:45;;;;;;;;;;;;;;;;;;5095575;28;20008;-89
2023/03/29 15:54:10;;;;;;;;;;;;;;;;;;5095936;28;19957;-89
2023/03/29 15:56:36;;;;;;;;;;;;;;;;;;5077563;28;19915;-89
2023/03/29 15:59:01;;;;;;;;;;;;;;;;;;5094427;28;19912;-88
2023/03/29 16:01:33;;;;;;;;;;;;;;;;;;5096130;28;19934;-87
2023/03/29 16:03:58;;;;;;;;;;;;;;;;;;5094156;28;20432;-87
2023/03/29 16:06:24;;;;;;;;;;;;;;;;;;5093114;28;19943;-88
2023/03/29 16:08:50;;;;;;;;;;;;;;;;;;5077075;28;19955;-88
2023/03/29 16:11:15;;;;;;;;;;;;;;;;;;5093177;28;20291;-87
2023/03/29 16:13:41;;;;;;;;;;;;;;;;;;5094106;28;19912;-87
2023/03/29 16:16:06;;;;;;;;;;;;;;;;;;5093782;28;19919;-87
2023/03/29 16:18:32;;;;;;;;;;;;;;;;;;5093837;28;19920;-88
2023/03/29 16:20:58;;;;;;;;;;;;;;;;;;5076438;28;19954;-88
2023/03/29 16:23:23;;;;;;;;;;;;;;;;;;5093292;28;20375;-88
2023/03/29 16:25:49;;;;;;;;;;;;;;;;;;5059787;28;19961;-88
2023/03/29 16:28:14;;;;;;;;;;;;;;;;;;5076733;28;19912;-88
2023/03/29 16:30:42;;;;;;;;;;;;;;;;;;5093535;28;19920;-87
2023/03/29 16:33:08;;;;;;;;;;;;;;;;;;5060315;28;19923;-87
2023/03/29 16:35:33;;;;;;;;;;;;;;;;;;5059950;28;19930;-89
2023/03/29 16:37:59;;;;;;;;;;;;;;;;;;5094840;28;19912;-88
2023/03/29 16:40:24;;;;;;;;;;;;;;;;;;5076508;28;19916;-87
2023/03/29 16:42:50;;;;;;;;;;;;;;;;;;5076986;28;19912;-87
2023/03/29 16:45:16;;;;;;;;;;;;;;;;;;5059342;28;20438;-88
2023/03/29 16:47:44;;;;;;;;;;;;;;;;;;5094593;28;19912;-89
2023/03/29 16:50:09;;;;;;;;;;;;;;;;;;5094891;28;19965;-89
2023/03/29 16:52:36;;;;;;;;;;;;;;;;;;5093065;28;19920;-88
2023/03/29 16:55:02;;;;;;;;;;;;;;;;;;5075827;28;19912;-88
2023/03/29 16:57:28;;;;;;;;;;;;;;;;;;5093678;28;19972;-90
2023/03/29 16:59:54;;;;;;;;;;;;;;;;;;5092526;28;19939;-86
2023/03/29 17:02:20;;;;;;;;;;;;;;;;;;5093923;28;19955;-88
2023/03/29 17:04:45;;;;;;;;;;;;;;;;;;5058757;28;19912;-89
2023/03/29 17:07:11;;;;;;;;;;;;;;;;;;5093854;28;20354;-88
2023/03/29 17:09:37;;;;;;;;;;;;;;;;;;5094112;28;19919;-87
2023/03/29 17:12:05;;;;;;;;;;;;;;;;;;5092433;28;19920;-87
2023/03/29 17:14:30;;;;;;;;;;;;;;;;;;5076220;28;20045;-89
2023/03/29 17:16:56;;;;;;;;;;;;;;;;;;5076059;28;19954;-89
2023/03/29 17:19:22;;;;;;;;;;;;;;;;;;5077425;28;20011;-88
2023/03/29 17:21:47;;;;;;;;;;;;;;;;;;5095425;28;19912;-90
2023/03/29 17:24:12;;;;;;;;;;;;;;;;;;5060938;28;19924;-89
2023/03/29 17:26:38;;;;;;;;;;;;;;;;;;5095225;28;19913;-88
2023/03/29 17:29:04;;;;;;;;;;;;;;;;;;5095161;28;19919;-89
2023/03/29 17:31:29;;;;;;;;;;;;;;;;;;5094538;28;19967;-90
2023/03/29 17:33:55;;;;;;;;;;;;;;;;;;5060517;28;19957;-90
2023/03/29 17:36:22;;;;;;;;;;;;;;;;;;5093623;28;19962;-89
2023/03/29 17:38:49;;;;;;;;;;;;;;;;;;5096162;28;20045;-86
2023/03/29 17:41:14;;;;;;;;;;;;;;;;;;5101903;28;19919;-87
2023/03/29 17:43:40;;;;;;;;;;;;;;;;;;5067505;28;20010;-88
2023/03/29 17:46:05;;;;;;;;;;;;;;;;;;5067604;28;19912;-86
2023/03/29 17:48:31;;;;;;;;;;;;;;;;;;5086559;28;19912;-87
2023/03/29 17:50:57;;;;;;;;;;;;;;;;;;5084917;28;19916;-88
2023/03/29 17:53:22;;;;;;;;;;;;;;;;;;5105893;28;20292;-89
2023/03/29 17:55:48;;;;;;;;;;;;;;;;;;5105827;28;19947;-88
2023/03/29 17:58:13;;;;;;;;;;;;;;;;;;5106559;28;20313;-87
2023/03/29 18:00:39;;;;;;;;;;;;;;;;;;5071846;28;20331;-84
2023/03/29 18:03:04;;;;;;;;;;;;;;;;;;5092802;28;19950;-88
2023/03/29 18:05:30;;;;;;;;;;;;;;;;;;5072903;28;19986;-88
2023/03/29 18:07:55;;;;;;;;;;;;;;;;;;5085142;28;19912;-86
2023/03/29 18:10:21;;;;;;;;;;;;;;;;;;5085401;28;19912;-88
2023/03/29 18:12:46;;;;;;;;;;;;;;;;;;5099973;28;19934;-89
2023/03/29 18:15:11;;;;;;;;;;;;;;;;;;5080306;28;20451;-87
2023/03/29 18:17:37;;;;;;;;;;;;;;;;;;5060699;28;20002;-88
2023/03/29 18:20:08;;;;;;;;;;;;;;;;;;5078186;28;19966;-89
2023/03/29 18:22:33;;;;;;;;;;;;;;;;;;5077394;28;19912;-89
2023/03/29 18:24:59;;;;;;;;;;;;;;;;;;5084903;22;19946;-81
2023/03/29 18:27:25;;;;;;;;;;;;;;;;;;5067914;28;19919;-81
2023/03/29 18:29:50;;;;;;;;;;;;;;;;;;5051630;28;19920;-80
2023/03/29 18:32:16;;;;;;;;;;;;;;;;;;5083283;28;19945;-81
2023/03/29 18:34:42;;;;;;;;;;;;;;;;;;5084197;28;19979;-80
2023/03/29 18:37:13;;;;;;;;;;;;;;;;;;5083785;28;19917;-80
2023/03/29 18:39:40;;;;;;;;;;;;;;;;;;5103927;28;20007;-80
2023/03/29 18:42:05;;;;;;;;;;;;;;;;;;5070351;28;19919;-81
2023/03/29 18:44:31;;;;;;;;;;;;;;;;;;5087077;28;20291;-81
2023/03/29 18:46:57;;;;;;;;;;;;;;;;;;5085966;28;19912;-80
2023/03/29 18:49:23;;;;;;;;;;;;;;;;;;5087575;28;19957;-79
2023/03/29 18:51:49;;;;;;;;;;;;;;;;;;5069798;28;20194;-80
2023/03/29 18:54:14;;;;;;;;;;;;;;;;;;5104728;28;19934;-81
2023/03/29 18:56:40;;;;;;;;;;;;;;;;;;5075866;28;19919;-80
2023/03/29 18:59:05;;;;;;;;;;;;;;;;;;5087242;28;20346;-80
2023/03/29 19:01:31;;;;;;;;;;;;;;;;;;5069261;28;19913;-80
2023/03/29 19:03:56;;;;;;;;;;;;;;;;;;5056312;28;19922;-81
2023/03/29 19:06:22;;;;;;;;;;;;;;;;;;5070769;28;19920;-82
2023/03/29 19:08:47;;;;;;;;;;;;;;;;;;5088304;28;19923;-80
2023/03/29 19:11:13;;;;;;;;;;;;;;;;;;5088718;28;19960;-81
2023/03/29 19:13:39;;;;;;;;;;;;;;;;;;5053379;28;19977;-81
2023/03/29 19:16:04;;;;;;;;;;;;;;;;;;5087648;28;19916;-80
2023/03/29 19:18:30;;;;;;;;;;;;;;;;;;5102061;28;19972;-81
2023/03/29 19:20:56;;;;;;;;;;;;;;;;;;5084833;28;19912;-80
2023/03/29 19:23:21;;;;;;;;;;;;;;;;;;5086555;28;19912;-80
2023/03/29 19:25:47;;;;;;;;;;;;;;;;;;5051469;28;19920;-81
2023/03/29 19:28:13;;;;;;;;;;;;;;;;;;5085300;28;19909;-81
2023/03/29 19:30:38;;;;;;;;;;;;;;;;;;5102726;28;20384;-82